To NAV CANADA Home Page Login to a new session Search on AWWS site Feedback and Comments Disclaimer Vers la page française équivalente Tips FAQ What's new on the site To the Forecasts and Observations / NOTAM section To "File a Flight Plan" website Publications and other links Update of the User's profile FIC Telephone Numbers My Weather Data Folder Route Weather Data Regional Weather Data Local Weather Data To the Forecasts and Observations / NOTAM section
Request Generated 06/26/2017 at 22:28:06 UTC . Weather information available at that time is displayed.

METAR/TAF

ST. ANTHONY/NL    (show WxCam)

METAR CYAY 262200Z AUTO 23018G26KT 9SM FEW210 19/06 A2964 RMK SLP039
DENSITY ALT 900FT=
METAR CYAY 262100Z AUTO 23015G20KT 9SM CLR 20/08 A2964 RMK SLP038
DENSITY ALT 1000FT=
SPECI CYAY 262031Z AUTO 28014G21KT 9SM CLR 20/09 A2963 RMK WSHFT AT
2023Z SLP036 DENSITY ALT 1000FT=
METAR CYAY 262000Z AUTO 23019G28KT 9SM FEW140 22/06 A2963 RMK SLP036
DENSITY ALT 1200FT=

TAF CYAY 261939Z 2620/2708 22017G27KT P6SM SKC
BECMG 2700/2702 23015KT
RMK FCST BASED ON AUTO OBS. NXT FCST BY 270200Z=
Your time UTC time
Weather data provided by Environment Canada and NAV CANADA